createdAt,value
2019-01-05T18:49:19.975Z,18.33
2019-01-05T18:52:06.074Z,19.53
2019-01-05T18:54:36.303Z,16.10
2019-01-05T18:57:09.345Z,17.23
2019-01-05T18:59:39.533Z,18.50
2019-01-05T19:02:25.958Z,15.57
2019-01-05T19:04:58.891Z,14.03
2019-01-05T19:07:45.027Z,18.17
2019-01-05T19:10:21.451Z,18.27
2019-01-05T19:12:54.384Z,20.30
2019-01-05T19:15:33.724Z,13.73
2019-01-05T19:18:20.190Z,17.30
2019-01-05T19:20:59.683Z,12.83
2019-01-05T19:23:38.956Z,13.97
2019-01-05T19:26:14.893Z,13.60
2019-01-05T19:28:51.049Z,15.93
2019-01-05T19:31:21.150Z,14.67
2019-01-05T19:34:06.202Z,13.23
2019-01-05T19:36:38.937Z,13.23
2019-01-05T19:39:25.796Z,13.60
2019-01-05T19:42:12.070Z,12.27
2019-01-05T19:44:58.367Z,18.77
2019-01-05T19:47:28.656Z,16.93
2019-01-05T19:50:14.892Z,14.70
2019-01-05T19:52:59.785Z,14.73
2019-01-05T19:55:30.379Z,17.00
2019-01-05T19:58:21.721Z,14.80
2019-01-05T20:00:51.936Z,16.07
2019-01-05T20:03:25.104Z,19.03
2019-01-05T20:06:04.211Z,16.60
2019-01-05T20:08:51.144Z,18.03
2019-01-05T20:11:21.379Z,15.03
2019-01-05T20:14:07.894Z,13.67
2019-01-05T20:16:46.600Z,10.83
2019-01-05T20:19:32.909Z,9.03
2019-01-05T20:22:03.032Z,12.30
2019-01-05T20:24:49.105Z,9.53
2019-01-05T20:27:21.994Z,8.73
2019-01-05T20:30:08.534Z,10.73
2019-01-05T20:32:38.950Z,8.70
2019-01-05T20:35:12.066Z,10.40
2019-01-05T20:37:42.146Z,7.93
2019-01-05T20:40:24.440Z,7.47
2019-01-05T20:43:00.432Z,7.87
2019-01-05T20:45:48.673Z,7.07
2019-01-05T20:48:34.768Z,7.43
2019-01-05T20:51:10.405Z,7.10
2019-01-05T20:53:56.362Z,7.57
2019-01-05T20:56:43.134Z,8.00
2019-01-05T20:59:22.020Z,11.53
2019-01-05T21:02:08.321Z,11.63
2019-01-05T21:04:54.807Z,11.88
2019-01-05T21:07:27.726Z,10.57
2019-01-05T21:10:00.581Z,9.23
2019-01-05T21:12:33.413Z,9.73
2019-01-05T21:15:04.295Z,10.33
2019-01-05T21:17:46.748Z,11.30
2019-01-05T21:20:33.025Z,10.27
2019-01-05T21:23:05.909Z,11.03
2019-01-05T21:25:54.329Z,11.90
2019-01-05T21:28:29.904Z,10.80
2019-01-05T21:31:08.649Z,15.97
2019-01-05T21:33:38.748Z,12.40
2019-01-05T21:36:25.245Z,10.07
2019-01-05T21:38:55.718Z,9.63
2019-01-05T21:41:41.976Z,10.50
2019-01-05T21:44:25.622Z,8.47
2019-01-05T21:46:58.772Z,7.47
2019-01-05T21:49:28.961Z,8.63
2019-01-05T21:52:15.621Z,7.87
2019-01-05T21:54:48.550Z,6.80
2019-01-05T21:57:33.955Z,8.57
2019-01-05T22:00:04.025Z,7.93
2019-01-05T22:02:50.623Z,6.53
2019-01-05T22:05:25.080Z,7.60
2019-01-05T22:08:13.258Z,6.10
2019-01-05T22:10:59.754Z,5.37
2019-01-05T22:13:29.864Z,6.90
2019-01-05T22:16:16.522Z,6.70
2019-01-05T22:19:03.214Z,6.77
2019-01-05T22:21:48.452Z,8.17
2019-01-05T22:24:21.659Z,10.60
2019-01-05T22:27:03.886Z,8.43
2019-01-05T22:29:34.095Z,7.57
2019-01-05T22:32:07.506Z,8.33
2019-01-05T22:34:46.615Z,8.47
2019-01-05T22:37:26.058Z,7.33
2019-01-05T22:40:11.553Z,5.67
2019-01-05T22:42:53.674Z,6.60
2019-01-05T22:45:23.932Z,7.93
2019-01-05T22:48:08.835Z,7.43
2019-01-05T22:50:47.840Z,8.40
2019-01-05T22:53:33.852Z,5.60
2019-01-05T22:56:15.954Z,6.53
2019-01-05T22:58:58.137Z,6.90
2019-01-05T23:01:43.694Z,5.83
2019-01-05T23:04:19.559Z,7.03
2019-01-05T23:06:50.171Z,5.40
2019-01-05T23:09:20.228Z,6.03
2019-01-05T23:11:56.473Z,6.43
2019-01-05T23:14:42.683Z,5.77
2019-01-05T23:17:12.941Z,5.87
2019-01-05T23:19:55.421Z,7.53
2019-01-05T23:22:37.258Z,7.00
2019-01-05T23:25:08.299Z,7.57
2019-01-05T23:27:38.551Z,6.37
2019-01-05T23:30:09.226Z,8.33
2019-01-05T23:32:39.388Z,8.10
2019-01-05T23:35:09.550Z,7.53
2019-01-05T23:37:51.653Z,7.90
2019-01-05T23:40:37.834Z,8.03
2019-01-05T23:43:10.611Z,10.97
2019-01-05T23:45:49.600Z,10.07
2019-01-05T23:48:37.852Z,8.23
2019-01-05T23:51:09.244Z,11.70
2019-01-05T23:53:55.773Z,10.10
2019-01-05T23:56:25.885Z,11.30
2019-01-05T23:58:55.986Z,10.77
